Terminal Aerodrome Forecast
Issued by NWS Quad Cities IA IL

Home | Current Version | Previous Version | Text Only | Print | Product List | Glossary On
Versions: 1 2 3 4 5 6 7 8 9 10 11 12 13 14 15 16 17 18 19
370
FTUS43 KDVN 121730
TAFMLI
TAF
KMLI 121730Z 1218/1318 32020G30KT P6SM SCT030
      TEMPO 1218/1220 BKN030
     FM130100 33012KT P6SM SKC
     FM130700 32007KT P6SM SCT250=

USA.gov is the U.S. government's official web portal to all federal, state and local government web resources and services.